Airfield :







YOU CAN JOIN US ON...

 
LOGIN :

Register | Disclaimer

   EN    FR    IT 

 









Legend :    VFR   Marginal VFR   IFR   Intensive IFR   Very Intensive IFR
Visi :
Ceiling :
>= 8 km
>= 3000ft
5 to 8 km
1000 to 3000 ft
1500m to 5 km
500 to 1000 ft
800 to 1500m
200 to 500 ft
< 800m
< 200 ft
Symbols :   Thunderstorms  Fog  Heavy snow  Heavy precipitations  Wind > 20 kt






- Airport Elevation : 9 ft
- IATA code : SJU


TJSJ - Luis Munoz Marin Int.

CURRENT METAR :
  • 270056Z 08010KT 10SM FEW027 SCT038 25/21 A3008 RMK AO2 SLP184 T02500206

EXPIRED METARs :
  • 262356Z 08009KT 10SM SCT030 SCT060 24/21 A3007 RMK AO2 SLP180 T02440206 10283 20244 53012
  • 262256Z 09009KT 10SM FEW027 SCT060 SCT085 25/21 A3005 RMK AO2 SLP175 T02500206

TAF TJSJ
Valid from the 26 at 18:00 until the 27 at 18:00 UTC


261725Z 2618/2718 09019G23KT P6SM FEW025 SCT030 SCT045
FM262300 08008KT P6SM FEW028 SCT060
FM270600 12002KT P6SM FEW028 FEW050
FM271400 06017KT P6SM FEW030
TJZS FIR / North America



MET'MAP, your aeronautical weather chart ! - Copyright ORBIFLY December 2007 - Disclaimer

ORBIFLY MET'MAP TEAM :

Programming & Development : Alexandra Zaïnal
Concept & original design : Baudouin d'Aumeries
Assistance for programming : Marc-Olivier Méhu
Technical & hardware support : Manuel Goepfert

Contact : metmap@orbifly.com




SOURCES & CREDITS :

   NOAA